Palm Beach, FL (33480)

9:12 AM EST on December 22, 2014 (GMT -0500)
Palm Beach, FL | Change Station
CLOSE
Current Station
Personal Weather Station
Location: Palm Beach, FL
Elevation: 8 ft
Nearby Weather Stations

Elev 8 ft 26.71 °N, 80.04 °W | Updated 19 seconds ago

Mostly Cloudy
Mostly Cloudy
78.3 °F
Feels Like 81 °F
N
2.9
Wind Variable Wind from SE
Gusts 6.0 mph

Today
High -- | Low -- °F
--% Chance of Precip.
Yesterday
High -- | Low -- °F
Precip. -- in
7:04 AM 5:32 PM
New Moon, 0% visible
Pressure 30.04 in
Visibility 10.0 miles
Clouds Few 2500 ft
Mostly Cloudy 14000 ft
Mostly Cloudy 23000 ft
Heat Index 81 °F
Dew Point 70 °F
Humidity 75%
Rainfall 0.00 in
Snow Depth Not available.
UV 1 out of 12
Pollen 4.60 out of 12
Air Quality Not available.
Flu Activity Not available.
METAR KPBI 221353Z 18005KT 10SM FEW025 BKN140 BKN230 25/20 A3004 RMK AO2 SLP170 T02500200

More Conditions Fewer Conditions

Pressure 30.04 in
Visibility 10.0 miles
Clouds Few 2500 ft
Mostly Cloudy 14000 ft
Mostly Cloudy 23000 ft
Heat Index 81 °F
Dew Point 70 °F
Humidity 75%
Rainfall 0.00 in
Snow Depth Not available.
UV 1 out of 12
Pollen 4.60 out of 12
Air Quality Not available.
Flu Activity Not available.
METAR KPBI 221353Z 18005KT 10SM FEW025 BKN140 BKN230 25/20 A3004 RMK AO2 SLP170 T02500200

More Conditions Fewer Conditions

10-Day Weather Forecast

Almanac

Astronomy

Dec. 22, 2014 Rise Set
Actual Time
Civil Twilight
Nautical Twilight
Astronomical Twilight
Moon
Length of Visible Light
Length of Day
Tomorrow will be .
, % of the Moon is Illuminated

Today's Extremes

State Highs State Lows

Community

WunderPhotos

Upload Photos

1,779,602 photos uploaded!

WunderBlogs® & News

Nearby

Air Quality

  Air Quality AQ Index Pollutant
Not available.

Snow Depth

Station Depth Elevation

Earthquake Activity

City Distance Mag. Time & Date
Minimum magnitude displayed is 2.5.

Coastal Water Temperatures

Place Temperature

Nearby Weather Stations